This is the latest recevied weather packets stored in our database for station/object W1NHD. If no packets are shown the sender has not sent any weather packets the latest 10 day(s).
| Time | Temp. | Humidity | Pressure | Rain* | Wind** | Luminosity | Snow |
|---|---|---|---|---|---|---|---|
| 1777778417 | 8.89° C | 94% | 1009.9 hPa | 0 mm | - | - | - |
| 1777777837 | 8.89° C | 94% | 1009.7 hPa | 0 mm | - | - | - |
| 1777775417 | 9.44° C | 93% | 1010 hPa | 0 mm | - | - | - |
| 1777774217 | 9.44° C | 93% | 1010.4 hPa | 0 mm | - | - | - |
| 1777773617 | 9.44° C | 92% | 1010.6 hPa | 0 mm | - | - | - |
| 1777766439 | 10° C | 88% | 1010.1 hPa | 0 mm | - | - | - |
| 1777762839 | 11.11° C | 80% | 1009.9 hPa | 0 mm | - | - | - |
| 1777762217 | 11.11° C | 79% | 1009.9 hPa | 0 mm | - | - | - |
| 1777759817 | 11.11° C | 80% | 1009.8 hPa | 0 mm | - | - | - |
| 1777759238 | 11.11° C | 81% | 1009.7 hPa | 0 mm | - | - | - |
| 1777757417 | 11.67° C | 79% | 1009.9 hPa | 0 mm | - | - | - |
| 1777750817 | 11.11° C | 85% | 1010.4 hPa | 0.25 mm | - | - | - |
| 1777750218 | 11.11° C | 84% | 1010.5 hPa | 0.25 mm | - | - | - |
| 1777744237 | 12.22° C | 79% | 1010.9 hPa | 0 mm | - | - | - |
| 1777743616 | 11.67° C | 80% | 1011.1 hPa | 0 mm | - | - | - |
| 1777740016 | 11.11° C | 80% | 1011.3 hPa | 0 mm | - | - | - |
| 1777738817 | 11.11° C | 78% | 1011.7 hPa | 0 mm | - | - | - |
| 1777737616 | 11.11° C | 78% | 1012 hPa | 0 mm | - | - | - |
| 1777737038 | 11.11° C | 76% | 1011.9 hPa | 0 mm | - | - | - |
| 1777735816 | 10.56° C | 80% | 1011.9 hPa | 0 mm | - | - | - |
| 1777735236 | 10.56° C | 82% | 1011.8 hPa | 0 mm | - | - | - |
| 1777729816 | 8.89° C | 86% | 1012.8 hPa | 0.25 mm | - | - | - |
| 1777718439 | 9.44° C | 86% | 1011.1 hPa | 0 mm | - | - | - |
| 1777715419 | 8.89° C | 86% | 1011.5 hPa | 0 mm | - | - | - |
| 1777709457 | 8.89° C | 84% | 1010.8 hPa | 0 mm | - | - | - |
* Rain latest hour (hover to see other rain measurements)
** Current wind speed in m/s (hover to see current wind gust speed)